createdAt,value
2022-08-09T00:01:39.876Z,18.10
2022-08-09T00:04:39.670Z,18.00
2022-08-09T00:07:44.408Z,17.80
2022-08-09T00:10:38.984Z,17.80
2022-08-09T00:13:31.767Z,17.80
2022-08-09T00:16:25.894Z,17.80
2022-08-09T00:19:18.803Z,17.80
2022-08-09T00:22:11.375Z,17.90
2022-08-09T00:25:04.074Z,18.00
2022-08-09T00:28:04.153Z,18.00
2022-08-09T00:30:58.355Z,18.00
2022-08-09T00:33:52.281Z,18.10
2022-08-09T00:36:44.548Z,18.10
2022-08-09T00:40:13.334Z,18.10
2022-08-09T00:44:13.137Z,18.00
2022-08-09T00:46:01.568Z,18.10
2022-08-09T00:48:56.214Z,18.00
2022-08-09T00:51:54.392Z,18.10
2022-08-09T00:54:49.338Z,18.10
2022-08-09T00:57:41.604Z,18.00
2022-08-09T01:00:35.076Z,17.90
2022-08-09T01:03:48.350Z,17.90
2022-08-09T01:06:54.405Z,17.80
2022-08-09T01:09:59.319Z,17.80
2022-08-09T01:13:22.128Z,17.60
2022-08-09T01:16:17.290Z,17.60
2022-08-09T01:20:01.735Z,17.60
2022-08-09T01:24:02.270Z,17.60
2022-08-09T01:27:00.101Z,17.50
2022-08-09T01:30:00.537Z,17.50
2022-08-09T01:32:55.754Z,17.50
2022-08-09T01:36:02.085Z,17.40
2022-08-09T01:38:56.613Z,17.40
2022-08-09T01:41:53.563Z,17.40
2022-08-09T01:44:54.959Z,17.50
2022-08-09T01:47:49.803Z,17.60
2022-08-09T01:50:48.367Z,17.50
2022-08-09T01:53:42.986Z,17.50
2022-08-09T01:56:38.817Z,17.50
2022-08-09T01:59:32.724Z,17.40
2022-08-09T02:02:38.747Z,17.30
2022-08-09T02:05:38.006Z,17.30
2022-08-09T02:08:58.567Z,17.30
2022-08-09T02:11:54.274Z,17.30
2022-08-09T02:14:52.832Z,17.30
2022-08-09T02:18:00.944Z,17.10
2022-08-09T02:21:03.608Z,17.20
2022-08-09T02:23:58.759Z,17.20
2022-08-09T02:26:58.797Z,17.20
2022-08-09T02:29:54.293Z,17.10
2022-08-09T02:32:48.567Z,17.20
2022-08-09T02:36:02.012Z,17.20
2022-08-09T02:39:00.861Z,17.20
2022-08-09T02:42:00.035Z,17.10
2022-08-09T02:45:03.092Z,17.10
2022-08-09T02:48:00.830Z,17.00
2022-08-09T02:50:56.500Z,16.90
2022-08-09T02:54:00.584Z,16.90
2022-08-09T02:56:57.135Z,16.90
2022-08-09T03:00:21.144Z,16.90
2022-08-09T03:03:03.865Z,16.90
2022-08-09T03:05:58.240Z,16.90
2022-08-09T03:08:53.201Z,16.80
2022-08-09T03:12:05.641Z,16.80
2022-08-09T03:15:01.386Z,16.80
2022-08-09T03:17:58.880Z,16.70
2022-08-09T03:20:52.362Z,16.70
2022-08-09T03:24:03.670Z,16.60
2022-08-09T03:26:57.756Z,16.60
2022-08-09T03:29:57.857Z,16.60
2022-08-09T03:32:56.745Z,16.60
2022-08-09T03:36:13.716Z,16.60
2022-08-09T03:39:04.738Z,16.70
2022-08-09T03:42:05.955Z,16.70
2022-08-09T03:44:59.278Z,16.70
2022-08-09T03:47:51.456Z,16.70
2022-08-09T03:50:44.938Z,16.80
2022-08-09T03:53:38.322Z,16.80
2022-08-09T03:56:31.264Z,16.90
2022-08-09T03:59:42.742Z,16.80
2022-08-09T04:02:36.792Z,16.90
2022-08-09T04:05:29.266Z,16.90
2022-08-09T04:08:29.041Z,16.90
2022-08-09T04:11:22.062Z,16.90
2022-08-09T04:14:37.116Z,17.40
2022-08-09T04:17:31.349Z,18.20
2022-08-09T04:20:23.629Z,19.20
2022-08-09T04:23:24.265Z,20.40
2022-08-09T04:26:17.030Z,21.30
2022-08-09T04:29:15.869Z,22.20
2022-08-09T04:32:08.196Z,22.90
2022-08-09T04:35:01.339Z,23.40
2022-08-09T04:37:53.761Z,23.50
2022-08-09T04:40:56.442Z,24.10
2022-08-09T04:44:06.053Z,24.80
2022-08-09T04:47:04.373Z,25.10
2022-08-09T04:49:58.249Z,25.30
2022-08-09T04:52:50.496Z,24.90
2022-08-09T04:55:57.453Z,25.20
2022-08-09T04:58:51.372Z,25.70
2022-08-09T05:01:47.618Z,26.20
2022-08-09T05:04:40.193Z,27.00
2022-08-09T05:07:33.042Z,27.70
2022-08-09T05:10:25.319Z,27.80
2022-08-09T05:13:17.724Z,28.10
2022-08-09T05:16:10.405Z,28.20
2022-08-09T05:19:02.965Z,27.70
2022-08-09T05:21:55.995Z,27.40
2022-08-09T05:24:48.867Z,27.40
2022-08-09T05:27:50.839Z,27.40
2022-08-09T05:30:47.908Z,27.10
2022-08-09T05:33:42.448Z,27.00
2022-08-09T05:36:34.894Z,27.00
2022-08-09T05:39:29.410Z,27.00
2022-08-09T05:42:27.865Z,26.90
2022-08-09T05:45:20.617Z,26.80
2022-08-09T05:48:17.096Z,26.60
2022-08-09T05:51:29.865Z,26.80
2022-08-09T05:54:25.201Z,27.00
2022-08-09T05:57:19.136Z,27.20
2022-08-09T06:00:13.290Z,27.50
2022-08-09T06:03:10.752Z,27.60
2022-08-09T06:06:05.951Z,27.70
2022-08-09T06:08:58.768Z,27.90
2022-08-09T06:11:57.059Z,28.10
2022-08-09T06:14:50.046Z,28.50
2022-08-09T06:17:42.577Z,28.70
2022-08-09T06:20:39.243Z,28.90
2022-08-09T06:23:58.050Z,29.10
2022-08-09T06:26:45.448Z,29.30
2022-08-09T06:29:48.336Z,29.40
2022-08-09T06:32:53.519Z,29.40
2022-08-09T06:36:07.320Z,29.30
2022-08-09T06:39:02.331Z,29.40
2022-08-09T06:42:08.450Z,29.00
2022-08-09T06:46:03.371Z,28.70
2022-08-09T06:48:16.574Z,28.10
2022-08-09T06:51:12.767Z,28.30
2022-08-09T06:54:09.287Z,28.80
2022-08-09T06:57:08.348Z,29.50
2022-08-09T07:00:56.498Z,29.80
2022-08-09T07:03:12.816Z,29.60
2022-08-09T07:06:06.447Z,29.60
2022-08-09T07:08:59.685Z,29.70
2022-08-09T07:11:53.383Z,30.00
2022-08-09T07:14:51.475Z,30.10
2022-08-09T07:17:52.652Z,29.80
2022-08-09T07:20:50.780Z,29.30
2022-08-09T07:23:46.599Z,28.70
2022-08-09T07:26:50.858Z,28.10
2022-08-09T07:29:43.258Z,28.10
2022-08-09T07:32:35.629Z,28.00
2022-08-09T07:35:28.474Z,27.50
2022-08-09T07:38:23.512Z,26.80
2022-08-09T07:41:15.968Z,26.80
2022-08-09T07:44:08.895Z,27.20
2022-08-09T07:47:04.058Z,27.10
2022-08-09T07:50:07.718Z,26.70
2022-08-09T07:53:03.067Z,26.70
2022-08-09T07:56:03.283Z,27.00
2022-08-09T07:58:59.750Z,27.60
2022-08-09T08:01:53.044Z,28.30
2022-08-09T08:04:48.903Z,29.00
2022-08-09T08:08:43.177Z,29.50
2022-08-09T08:12:09.338Z,30.10
2022-08-09T08:14:06.618Z,30.30
2022-08-09T08:17:07.451Z,30.00
2022-08-09T08:20:00.170Z,30.40
2022-08-09T08:22:52.713Z,30.40
2022-08-09T08:25:59.403Z,30.80
2022-08-09T08:28:58.980Z,30.90
2022-08-09T08:32:03.946Z,30.00
2022-08-09T08:34:59.287Z,29.40
2022-08-09T08:38:01.993Z,29.80
2022-08-09T08:41:06.280Z,30.00
2022-08-09T08:44:02.672Z,29.40
2022-08-09T08:47:02.059Z,28.60
2022-08-09T08:49:58.094Z,28.20
2022-08-09T08:52:59.299Z,28.40
2022-08-09T08:55:52.382Z,28.80
2022-08-09T08:58:46.561Z,28.90
2022-08-09T09:01:51.926Z,29.30
2022-08-09T09:04:52.751Z,30.10
2022-08-09T09:07:50.417Z,30.60
2022-08-09T09:10:44.342Z,30.80
2022-08-09T09:13:54.794Z,30.70
2022-08-09T09:16:49.880Z,30.50
2022-08-09T09:19:42.865Z,30.50
2022-08-09T09:23:01.967Z,30.60
2022-08-09T09:26:01.328Z,30.90
2022-08-09T09:29:04.208Z,30.70
2022-08-09T09:32:15.400Z,30.10
2022-08-09T09:35:10.478Z,30.50
2022-08-09T09:38:05.286Z,31.00
2022-08-09T09:41:01.260Z,31.40
2022-08-09T09:44:10.706Z,31.60
2022-08-09T09:47:21.517Z,30.90
2022-08-09T09:50:17.362Z,29.80
2022-08-09T09:53:16.239Z,29.40
2022-08-09T09:56:08.465Z,29.90
2022-08-09T09:59:14.378Z,30.20
2022-08-09T10:02:09.274Z,29.90
2022-08-09T10:05:08.642Z,29.30
2022-08-09T10:08:26.151Z,29.20
2022-08-09T10:11:59.696Z,29.60
2022-08-09T10:14:37.869Z,29.90
2022-08-09T10:17:54.984Z,30.20
2022-08-09T10:20:46.861Z,30.20
2022-08-09T10:23:39.805Z,30.00
2022-08-09T10:26:32.069Z,30.40
2022-08-09T10:30:22.771Z,30.40
2022-08-09T10:32:42.212Z,30.50
2022-08-09T10:35:43.237Z,31.00
2022-08-09T10:38:57.084Z,30.70
2022-08-09T10:41:50.776Z,30.40
2022-08-09T10:44:48.100Z,29.90
2022-08-09T10:48:16.385Z,29.60
2022-08-09T10:51:41.199Z,29.10
2022-08-09T10:54:33.703Z,29.00
2022-08-09T10:57:37.557Z,28.90
2022-08-09T11:00:33.071Z,29.20
2022-08-09T11:03:27.842Z,29.70
2022-08-09T11:06:44.699Z,30.00
2022-08-09T11:09:47.967Z,30.40
2022-08-09T11:12:41.213Z,30.70
2022-08-09T11:15:38.461Z,30.80
2022-08-09T11:18:45.862Z,31.10
2022-08-09T11:21:57.220Z,31.40
2022-08-09T11:24:57.939Z,31.40
2022-08-09T11:28:09.189Z,31.50
2022-08-09T11:31:50.129Z,31.00
2022-08-09T11:34:46.155Z,30.40
2022-08-09T11:37:44.970Z,29.90
2022-08-09T11:40:42.379Z,29.40
2022-08-09T11:43:37.472Z,29.50
2022-08-09T11:46:54.838Z,29.20
2022-08-09T11:50:53.801Z,29.30
2022-08-09T11:53:20.959Z,29.30
2022-08-09T11:56:41.808Z,29.40
2022-08-09T11:59:39.726Z,29.50
2022-08-09T12:02:51.212Z,29.50
2022-08-09T12:05:47.198Z,29.40
2022-08-09T12:08:46.456Z,29.30
2022-08-09T12:12:02.183Z,29.20
2022-08-09T12:15:07.970Z,29.00
2022-08-09T12:18:01.338Z,28.70
2022-08-09T12:20:53.640Z,28.70
2022-08-09T12:24:06.181Z,28.80
2022-08-09T12:28:58.297Z,29.00
2022-08-09T12:30:37.047Z,29.20
2022-08-09T12:33:35.263Z,29.30
2022-08-09T12:36:58.874Z,29.40
2022-08-09T12:40:05.642Z,29.70
2022-08-09T12:42:58.264Z,30.00
2022-08-09T12:45:59.372Z,30.20
2022-08-09T12:48:56.189Z,30.30
2022-08-09T12:52:02.511Z,30.40
2022-08-09T12:55:03.134Z,30.20
2022-08-09T12:58:24.393Z,29.70
2022-08-09T13:01:26.793Z,29.30
2022-08-09T13:04:33.318Z,29.00
2022-08-09T13:07:51.303Z,28.90
2022-08-09T13:10:52.941Z,28.90
2022-08-09T13:14:40.563Z,29.00
2022-08-09T13:17:02.705Z,29.10
2022-08-09T13:20:06.925Z,28.80
2022-08-09T13:23:16.565Z,28.40
2022-08-09T13:26:53.324Z,28.10
2022-08-09T13:30:49.371Z,27.80
2022-08-09T13:33:24.497Z,27.80
2022-08-09T13:36:37.956Z,27.90
2022-08-09T13:41:50.577Z,28.00
2022-08-09T13:42:44.507Z,27.90
2022-08-09T13:46:42.419Z,28.10
2022-08-09T13:48:49.178Z,28.00
2022-08-09T13:51:42.416Z,28.00
2022-08-09T13:55:00.609Z,28.10
2022-08-09T13:57:58.542Z,28.00
2022-08-09T14:00:52.481Z,27.90
2022-08-09T14:04:04.794Z,27.90
2022-08-09T14:06:59.927Z,28.20
2022-08-09T14:09:55.788Z,28.30
2022-08-09T14:12:50.099Z,28.40
2022-08-09T14:16:09.443Z,28.60
2022-08-09T14:18:54.634Z,28.60
2022-08-09T14:21:49.851Z,28.50
2022-08-09T14:24:53.396Z,28.30
2022-08-09T14:27:58.196Z,28.30
2022-08-09T14:30:53.798Z,28.30
2022-08-09T14:33:45.964Z,28.60
2022-08-09T14:36:46.658Z,28.60
2022-08-09T14:39:46.904Z,28.60
2022-08-09T14:42:41.191Z,28.70
2022-08-09T14:46:55.000Z,28.60
2022-08-09T14:48:45.798Z,28.50
2022-08-09T14:51:42.242Z,28.60
2022-08-09T14:54:34.916Z,28.80
2022-08-09T14:57:31.842Z,29.10
2022-08-09T15:00:36.731Z,29.30
2022-08-09T15:03:29.460Z,29.50
2022-08-09T15:06:24.148Z,29.50
2022-08-09T15:09:51.936Z,29.60
2022-08-09T15:12:30.326Z,29.60
2022-08-09T15:15:23.544Z,29.40
2022-08-09T15:18:15.959Z,29.40
2022-08-09T15:21:55.400Z,29.40
2022-08-09T15:24:27.186Z,29.20
2022-08-09T15:27:19.678Z,28.90
2022-08-09T15:30:59.385Z,28.60
2022-08-09T15:34:04.310Z,28.40
2022-08-09T15:36:37.013Z,28.20
2022-08-09T15:39:34.559Z,27.80
2022-08-09T15:42:27.346Z,27.70
2022-08-09T15:45:21.937Z,27.70
2022-08-09T15:48:29.106Z,27.60
2022-08-09T15:52:01.741Z,27.60
2022-08-09T15:54:44.561Z,27.60
2022-08-09T15:57:44.358Z,27.60
2022-08-09T16:00:43.875Z,27.50
2022-08-09T16:03:38.534Z,27.50
2022-08-09T16:06:37.295Z,27.50
2022-08-09T16:09:32.742Z,27.60
2022-08-09T16:12:50.152Z,27.50
2022-08-09T16:16:12.231Z,27.40
2022-08-09T16:18:55.129Z,27.40
2022-08-09T16:21:51.973Z,27.40
2022-08-09T16:24:46.356Z,27.40
2022-08-09T16:27:52.760Z,27.40
2022-08-09T16:30:59.097Z,27.40
2022-08-09T16:33:51.811Z,27.50
2022-08-09T16:36:44.021Z,27.60
2022-08-09T16:39:48.001Z,27.60
2022-08-09T16:42:51.067Z,27.70
2022-08-09T16:45:44.207Z,27.70
2022-08-09T16:48:55.948Z,27.60
2022-08-09T16:51:55.186Z,27.50
2022-08-09T16:54:47.724Z,27.40
2022-08-09T16:58:09.779Z,27.30
2022-08-09T17:00:55.249Z,27.20
2022-08-09T17:03:47.620Z,27.20
2022-08-09T17:06:48.328Z,27.30
2022-08-09T17:09:52.214Z,27.20
2022-08-09T17:12:55.276Z,27.10
2022-08-09T17:16:00.166Z,27.00
2022-08-09T17:18:54.631Z,26.90
2022-08-09T17:21:47.433Z,26.80
2022-08-09T17:24:41.475Z,26.80
2022-08-09T17:27:49.499Z,26.70
2022-08-09T17:30:47.593Z,26.70
2022-08-09T17:33:40.383Z,26.60
2022-08-09T17:36:32.593Z,26.50
2022-08-09T17:39:25.347Z,26.50
2022-08-09T17:42:41.203Z,26.50
2022-08-09T17:46:04.059Z,26.50
2022-08-09T17:48:58.891Z,26.50
2022-08-09T17:51:51.786Z,26.40
2022-08-09T17:54:44.552Z,26.40
2022-08-09T17:58:02.822Z,26.30
2022-08-09T18:00:56.498Z,26.20
2022-08-09T18:03:49.308Z,26.20
2022-08-09T18:06:43.098Z,26.20
2022-08-09T18:10:04.234Z,26.20
2022-08-09T18:13:39.560Z,26.20
2022-08-09T18:16:09.894Z,26.10
2022-08-09T18:20:54.308Z,26.10
2022-08-09T18:22:17.175Z,26.10
2022-08-09T18:25:09.864Z,26.00
2022-08-09T18:28:19.026Z,26.00
2022-08-09T18:31:19.137Z,25.90
2022-08-09T18:34:24.453Z,25.90
2022-08-09T18:37:47.327Z,25.80
2022-08-09T18:40:29.377Z,25.70
2022-08-09T18:43:23.393Z,25.80
2022-08-09T18:46:49.931Z,25.60
2022-08-09T18:49:27.936Z,25.20
2022-08-09T18:52:28.537Z,24.90
2022-08-09T18:55:45.560Z,24.80
2022-08-09T18:58:39.745Z,24.70
2022-08-09T19:01:32.207Z,24.60
2022-08-09T19:04:38.440Z,24.50
2022-08-09T19:07:31.521Z,24.50
2022-08-09T19:10:23.845Z,24.40
2022-08-09T19:13:22.909Z,24.40
2022-08-09T19:16:35.953Z,24.40
2022-08-09T19:19:29.109Z,24.40
2022-08-09T19:22:34.112Z,24.40
2022-08-09T19:25:42.493Z,24.30
2022-08-09T19:28:40.035Z,24.20
2022-08-09T19:31:45.053Z,24.10
2022-08-09T19:34:42.724Z,24.10
2022-08-09T19:37:54.383Z,24.10
2022-08-09T19:40:49.952Z,24.00
2022-08-09T19:44:01.171Z,23.90
2022-08-09T19:46:54.472Z,23.90
2022-08-09T19:50:09.609Z,23.80
2022-08-09T19:52:58.942Z,23.80
2022-08-09T19:56:01.935Z,23.60
2022-08-09T19:59:39.311Z,23.50
2022-08-09T20:02:17.364Z,23.40
2022-08-09T20:05:27.481Z,23.30
2022-08-09T20:08:25.121Z,23.20
2022-08-09T20:11:43.236Z,23.10
2022-08-09T20:14:49.997Z,23.10
2022-08-09T20:17:48.257Z,23.00
2022-08-09T20:20:46.620Z,22.90
2022-08-09T20:23:40.212Z,22.90
2022-08-09T20:26:32.562Z,22.80
2022-08-09T20:29:24.807Z,22.70
2022-08-09T20:32:45.390Z,22.70
2022-08-09T20:35:37.983Z,22.60
2022-08-09T20:38:47.556Z,22.60
2022-08-09T20:41:42.652Z,22.50
2022-08-09T20:44:36.518Z,22.40
2022-08-09T20:47:48.464Z,22.40
2022-08-09T20:50:47.356Z,22.30
2022-08-09T20:53:40.995Z,22.30
2022-08-09T20:56:33.954Z,22.30
2022-08-09T21:00:19.575Z,22.30
2022-08-09T21:02:40.170Z,22.30
2022-08-09T21:05:53.796Z,22.30
2022-08-09T21:08:47.039Z,22.30
2022-08-09T21:14:57.421Z,22.20
2022-08-09T21:18:23.028Z,22.20
2022-08-09T21:21:02.400Z,22.20
2022-08-09T21:24:09.958Z,22.20
2022-08-09T21:27:50.338Z,22.10
2022-08-09T21:30:16.080Z,22.20
2022-08-09T21:33:11.441Z,22.30
2022-08-09T21:36:08.458Z,22.20
2022-08-09T21:39:05.776Z,22.30
2022-08-09T21:42:03.605Z,22.30
2022-08-09T21:44:59.289Z,22.20
2022-08-09T21:47:51.569Z,22.20
2022-08-09T21:50:49.676Z,22.10
2022-08-09T21:53:43.678Z,22.10
2022-08-09T21:56:44.841Z,22.00
2022-08-09T21:59:47.264Z,22.00
2022-08-09T22:02:40.147Z,22.00
2022-08-09T22:05:37.308Z,22.00
2022-08-09T22:08:34.019Z,22.10
2022-08-09T22:12:06.707Z,22.10
2022-08-09T22:14:38.358Z,22.00
2022-08-09T22:17:32.161Z,22.00
2022-08-09T22:20:27.338Z,22.00
2022-08-09T22:23:25.293Z,22.00
2022-08-09T22:26:34.152Z,22.00
2022-08-09T22:29:34.513Z,21.90
2022-08-09T22:32:38.962Z,22.00
2022-08-09T22:36:01.623Z,22.00
2022-08-09T22:38:43.936Z,22.00
2022-08-09T22:41:36.949Z,21.90
2022-08-09T22:44:34.951Z,21.80
2022-08-09T22:48:10.961Z,21.70
2022-08-09T22:50:39.993Z,21.70
2022-08-09T22:53:33.472Z,21.70
2022-08-09T22:56:44.718Z,21.70
2022-08-09T22:59:58.050Z,21.70
2022-08-09T23:02:51.104Z,21.70
2022-08-09T23:05:45.717Z,21.70
2022-08-09T23:08:47.068Z,21.70
2022-08-09T23:11:39.261Z,21.60
2022-08-09T23:14:41.245Z,21.60
2022-08-09T23:17:34.948Z,21.60
2022-08-09T23:20:28.808Z,21.50
2022-08-09T23:23:21.053Z,21.40
2022-08-09T23:26:13.298Z,21.30
2022-08-09T23:29:11.649Z,21.20
2022-08-09T23:32:04.881Z,21.20
2022-08-09T23:34:57.315Z,21.10
2022-08-09T23:37:49.544Z,21.20
2022-08-09T23:40:41.737Z,21.20
2022-08-09T23:43:34.012Z,21.20
2022-08-09T23:46:27.602Z,21.20
2022-08-09T23:49:24.522Z,21.20
2022-08-09T23:52:17.243Z,21.20
2022-08-09T23:55:09.670Z,21.10
2022-08-09T23:58:09.319Z,21.20
